createdAt,value
2023-04-04T00:02:10.989Z,99.90
2023-04-04T00:04:37.705Z,99.90
2023-04-04T00:07:04.413Z,99.90
2023-04-04T00:09:31.062Z,99.90
2023-04-04T00:11:58.066Z,99.90
2023-04-04T00:14:24.793Z,99.90
2023-04-04T00:16:51.636Z,99.90
2023-04-04T00:19:19.007Z,99.90
2023-04-04T00:21:46.035Z,99.90
2023-04-04T00:24:12.809Z,99.90
2023-04-04T00:26:39.515Z,99.90
2023-04-04T00:29:06.790Z,99.90
2023-04-04T00:31:33.759Z,99.90
2023-04-04T00:34:00.567Z,99.90
2023-04-04T00:36:27.289Z,99.90
2023-04-04T00:38:55.572Z,99.90
2023-04-04T00:41:22.503Z,99.90
2023-04-04T00:43:49.268Z,99.90
2023-04-04T00:46:18.748Z,99.90
2023-04-04T00:48:45.901Z,99.90
2023-04-04T00:51:12.816Z,99.90
2023-04-04T00:53:39.544Z,99.90
2023-04-04T00:56:08.184Z,99.90
2023-04-04T00:58:34.906Z,99.90
2023-04-04T01:01:02.344Z,99.90
2023-04-04T01:03:29.463Z,99.90
2023-04-04T01:05:56.791Z,99.90
2023-04-04T01:08:26.273Z,99.90
2023-04-04T01:10:53.806Z,99.90
2023-04-04T01:13:21.888Z,99.90
2023-04-04T01:15:50.251Z,99.90
2023-04-04T01:18:18.952Z,99.90
2023-04-04T01:21:17.316Z,99.90
2023-04-04T01:23:49.660Z,99.90
2023-04-04T01:26:16.629Z,99.90
2023-04-04T01:28:43.902Z,99.90
2023-04-04T01:31:13.068Z,99.90
2023-04-04T01:33:48.190Z,99.90
2023-04-04T01:36:23.060Z,99.90
2023-04-04T01:38:53.566Z,99.90
2023-04-04T01:41:21.432Z,99.90
2023-04-04T01:43:54.208Z,99.90
2023-04-04T01:46:21.202Z,99.90
2023-04-04T01:48:49.230Z,99.90
2023-04-04T01:51:19.967Z,99.90
2023-04-04T01:53:46.894Z,99.90
2023-04-04T01:56:13.742Z,99.90
2023-04-04T01:58:41.060Z,99.90
2023-04-04T02:01:07.999Z,99.90
2023-04-04T02:03:34.746Z,99.90
2023-04-04T02:06:01.409Z,99.90
2023-04-04T02:08:28.716Z,99.90
2023-04-04T02:11:00.245Z,99.90
2023-04-04T02:13:27.370Z,99.90
2023-04-04T02:15:55.632Z,99.90
2023-04-04T02:18:22.708Z,99.90
2023-04-04T02:20:56.399Z,99.90
2023-04-04T02:23:23.108Z,99.90
2023-04-04T02:25:52.887Z,99.90
2023-04-04T02:28:19.635Z,99.90
2023-04-04T02:30:47.986Z,99.90
2023-04-04T02:33:14.782Z,99.90
2023-04-04T02:35:42.013Z,99.90
2023-04-04T02:38:08.990Z,99.90
2023-04-04T02:40:42.232Z,99.90
2023-04-04T02:43:09.281Z,99.90
2023-04-04T02:45:36.586Z,99.90
2023-04-04T02:48:11.865Z,99.90
2023-04-04T02:50:43.927Z,99.90
2023-04-04T02:53:13.412Z,99.90
2023-04-04T02:55:40.123Z,99.90
2023-04-04T02:58:06.973Z,99.90
2023-04-04T03:00:33.668Z,99.90
2023-04-04T03:03:00.576Z,99.90
2023-04-04T03:05:32.014Z,99.90
2023-04-04T03:07:58.980Z,99.90
2023-04-04T03:10:29.814Z,99.90
2023-04-04T03:12:57.445Z,99.90
2023-04-04T03:15:25.782Z,99.90
2023-04-04T03:17:53.028Z,99.90
2023-04-04T03:20:23.501Z,99.90
2023-04-04T03:22:50.318Z,99.90
2023-04-04T03:25:17.077Z,99.90
2023-04-04T03:27:43.820Z,99.90
2023-04-04T03:30:13.238Z,99.90
2023-04-04T03:32:39.985Z,99.90
2023-04-04T03:35:07.572Z,99.90
2023-04-04T03:37:34.396Z,99.90
2023-04-04T03:40:01.230Z,99.90
2023-04-04T03:42:34.112Z,99.90
2023-04-04T03:45:02.764Z,99.90
2023-04-04T03:47:32.869Z,99.90
2023-04-04T03:50:00.199Z,99.90
2023-04-04T03:52:28.138Z,99.90
2023-04-04T03:54:54.882Z,99.90
2023-04-04T03:57:21.574Z,99.90
2023-04-04T03:59:48.377Z,99.90
2023-04-04T04:02:15.426Z,99.90
2023-04-04T04:04:42.194Z,99.90
2023-04-04T04:07:08.937Z,99.90
2023-04-04T04:09:36.519Z,99.90
2023-04-04T04:12:03.309Z,99.90
2023-04-04T04:14:30.016Z,99.90
2023-04-04T04:16:56.944Z,99.90
2023-04-04T04:19:23.732Z,99.90
2023-04-04T04:21:50.509Z,99.90
2023-04-04T04:24:17.317Z,99.90
2023-04-04T04:26:44.070Z,99.90
2023-04-04T04:29:14.092Z,99.90
2023-04-04T04:31:41.643Z,99.90
2023-04-04T04:34:11.095Z,99.90
2023-04-04T04:36:39.876Z,99.90
2023-04-04T04:39:27.171Z,99.90
2023-04-04T04:42:08.565Z,99.90
2023-04-04T04:44:39.617Z,99.90
2023-04-04T04:47:06.681Z,99.90
2023-04-04T04:49:33.462Z,99.90
2023-04-04T04:52:04.878Z,99.90
2023-04-04T04:54:32.433Z,99.90
2023-04-04T04:57:01.253Z,99.90
2023-04-04T04:59:29.450Z,99.90
2023-04-04T05:01:56.873Z,99.90
2023-04-04T05:04:25.866Z,99.90
2023-04-04T05:07:00.590Z,99.90
2023-04-04T05:09:27.649Z,99.90
2023-04-04T05:11:54.511Z,99.90
2023-04-04T05:14:25.825Z,99.90
2023-04-04T05:16:56.864Z,99.90
2023-04-04T05:19:28.379Z,99.90
2023-04-04T05:21:57.349Z,99.90
2023-04-04T05:24:32.754Z,99.90
2023-04-04T05:27:00.760Z,99.90
2023-04-04T05:29:33.271Z,99.90
2023-04-04T05:32:02.016Z,99.90
2023-04-04T05:34:29.334Z,99.90
2023-04-04T05:36:57.583Z,99.90
2023-04-04T05:39:24.487Z,99.90
2023-04-04T05:42:01.253Z,99.90
2023-04-04T05:44:31.237Z,99.90
2023-04-04T05:46:57.984Z,99.90
2023-04-04T05:49:25.466Z,99.90
2023-04-04T05:51:56.657Z,99.90
2023-04-04T05:54:24.148Z,99.90
2023-04-04T05:56:51.866Z,99.90
2023-04-04T05:59:30.567Z,99.90
2023-04-04T06:02:01.765Z,99.90
2023-04-04T06:04:29.432Z,99.90
2023-04-04T06:06:59.224Z,99.90
2023-04-04T06:09:26.193Z,99.90
2023-04-04T06:11:52.981Z,99.90
2023-04-04T06:14:19.866Z,99.90
2023-04-04T06:16:48.099Z,99.90
2023-04-04T06:19:16.319Z,99.90
2023-04-04T06:21:43.091Z,99.90
2023-04-04T06:24:11.979Z,99.90
2023-04-04T06:26:39.200Z,99.90
2023-04-04T06:29:06.529Z,99.90
2023-04-04T06:31:36.765Z,99.90
2023-04-04T06:34:10.695Z,99.90
2023-04-04T06:36:53.774Z,99.90
2023-04-04T06:39:22.711Z,99.90
2023-04-04T06:41:51.650Z,99.90
2023-04-04T06:44:24.102Z,99.90
2023-04-04T06:46:51.481Z,99.90
2023-04-04T06:49:18.299Z,99.90
2023-04-04T06:51:44.977Z,99.90
2023-04-04T06:54:11.915Z,99.90
2023-04-04T06:56:38.738Z,99.90
2023-04-04T06:59:05.528Z,99.90
2023-04-04T07:01:35.503Z,99.90
2023-04-04T07:04:02.418Z,99.90
2023-04-04T07:06:31.344Z,99.90
2023-04-04T07:08:59.767Z,99.90
2023-04-04T07:11:29.646Z,99.90
2023-04-04T07:13:56.927Z,99.90
2023-04-04T07:16:23.808Z,99.90
2023-04-04T07:18:51.064Z,99.90
2023-04-04T07:21:18.564Z,99.90
2023-04-04T07:23:47.815Z,99.90
2023-04-04T07:26:18.320Z,99.90
2023-04-04T07:28:45.715Z,99.90
2023-04-04T07:31:14.754Z,99.90
2023-04-04T07:33:42.108Z,99.90
2023-04-04T07:36:09.949Z,99.90
2023-04-04T07:38:37.446Z,99.90
2023-04-04T07:41:04.685Z,99.90
2023-04-04T07:43:31.982Z,99.90
2023-04-04T07:45:58.809Z,99.50
2023-04-04T07:48:26.542Z,99.80
2023-04-04T07:50:53.557Z,99.10
2023-04-04T07:53:20.726Z,99.30
2023-04-04T07:55:47.621Z,99.60
2023-04-04T07:58:14.686Z,98.30
2023-04-04T08:00:41.702Z,98.30
2023-04-04T08:03:08.603Z,98.40
2023-04-04T08:05:35.444Z,98.30
2023-04-04T08:08:02.169Z,97.60
2023-04-04T08:10:29.031Z,96.70
2023-04-04T08:12:55.846Z,96.80
2023-04-04T08:15:22.550Z,95.90
2023-04-04T08:17:50.081Z,95.30
2023-04-04T08:20:16.889Z,95.50
2023-04-04T08:22:43.711Z,95.90
2023-04-04T08:25:11.227Z,95.40
2023-04-04T08:27:43.796Z,95.30
2023-04-04T08:30:11.629Z,95.30
2023-04-04T08:32:38.519Z,95.00
2023-04-04T08:35:06.283Z,95.90
2023-04-04T08:37:35.523Z,95.40
2023-04-04T08:40:04.097Z,96.00
2023-04-04T08:42:50.479Z,94.50
2023-04-04T08:45:28.655Z,94.80
2023-04-04T08:48:10.118Z,94.20
2023-04-04T08:51:08.537Z,94.30
2023-04-04T08:53:38.632Z,94.10
2023-04-04T08:56:12.358Z,94.20
2023-04-04T08:59:01.715Z,93.40
2023-04-04T09:01:29.817Z,92.50
2023-04-04T09:04:00.056Z,92.40
2023-04-04T09:06:27.682Z,92.20
2023-04-04T09:08:54.583Z,91.10
2023-04-04T09:11:21.738Z,91.30
2023-04-04T09:13:49.043Z,92.00
2023-04-04T09:16:15.772Z,91.70
2023-04-04T09:18:42.774Z,90.90
2023-04-04T09:21:13.072Z,91.50
2023-04-04T09:23:39.757Z,92.60
2023-04-04T09:26:06.852Z,93.00
2023-04-04T09:28:33.772Z,92.60
2023-04-04T09:31:05.648Z,92.00
2023-04-04T09:33:36.292Z,91.80
2023-04-04T09:36:12.731Z,92.40
2023-04-04T09:38:40.866Z,91.20
2023-04-04T09:41:09.709Z,92.40
2023-04-04T09:43:37.267Z,91.80
2023-04-04T09:46:04.261Z,91.80
2023-04-04T09:48:32.780Z,91.30
2023-04-04T09:50:59.935Z,90.40
2023-04-04T09:53:27.453Z,90.20
2023-04-04T09:55:55.016Z,90.10
2023-04-04T09:58:28.898Z,89.60
2023-04-04T10:01:00.181Z,90.70
2023-04-04T10:03:27.530Z,90.20
2023-04-04T10:06:06.800Z,90.00
2023-04-04T10:08:34.396Z,86.50
2023-04-04T10:11:11.144Z,84.90
2023-04-04T10:13:47.805Z,86.30
2023-04-04T10:16:16.224Z,86.70
2023-04-04T10:18:43.409Z,86.60
2023-04-04T10:23:41.474Z,88.40
2023-04-04T10:26:08.356Z,84.80
2023-04-04T10:28:35.341Z,83.60
2023-04-04T10:31:11.548Z,84.00
2023-04-04T10:33:44.083Z,85.80
2023-04-04T10:36:12.216Z,84.50
2023-04-04T10:38:42.625Z,83.10
2023-04-04T10:41:09.411Z,83.20
2023-04-04T10:43:36.702Z,83.60
2023-04-04T10:46:12.015Z,85.10
2023-04-04T10:48:38.844Z,82.70
2023-04-04T10:51:06.198Z,83.10
2023-04-04T10:53:33.855Z,84.30
2023-04-04T10:56:01.076Z,83.20
2023-04-04T10:58:28.573Z,85.10
2023-04-04T11:00:56.202Z,81.60
2023-04-04T11:03:23.027Z,80.00
2023-04-04T11:05:51.615Z,80.10
2023-04-04T11:08:24.206Z,77.70
2023-04-04T11:10:54.813Z,79.10
2023-04-04T11:13:39.742Z,75.40
2023-04-04T11:16:15.725Z,78.40
2023-04-04T11:18:43.158Z,79.80
2023-04-04T11:21:19.960Z,78.30
2023-04-04T11:23:50.073Z,80.40
2023-04-04T11:26:26.510Z,77.00
2023-04-04T11:28:59.517Z,78.40
2023-04-04T11:31:40.143Z,77.00
2023-04-04T11:34:11.450Z,75.30
2023-04-04T11:36:38.742Z,75.20
2023-04-04T11:39:28.292Z,72.50
2023-04-04T11:41:55.352Z,71.90
2023-04-04T11:44:25.257Z,71.50
2023-04-04T11:47:16.199Z,70.40
2023-04-04T11:49:43.475Z,70.80
2023-04-04T11:52:11.966Z,68.40
2023-04-04T11:54:39.136Z,68.40
2023-04-04T11:57:06.758Z,66.60
2023-04-04T11:59:34.692Z,67.30
2023-04-04T12:02:03.018Z,68.30
2023-04-04T12:04:29.870Z,64.10
2023-04-04T12:06:56.908Z,66.00
2023-04-04T12:09:25.418Z,66.30
2023-04-04T12:11:52.077Z,65.00
2023-04-04T12:14:23.617Z,66.10
2023-04-04T12:16:52.262Z,66.50
2023-04-04T12:19:19.022Z,67.40
2023-04-04T12:21:49.419Z,70.10
2023-04-04T12:24:16.527Z,72.70
2023-04-04T12:26:44.773Z,71.60
2023-04-04T12:29:12.173Z,66.70
2023-04-04T12:31:41.529Z,66.20
2023-04-04T12:34:15.745Z,66.20
2023-04-04T12:36:42.626Z,64.60
2023-04-04T12:39:11.962Z,65.70
2023-04-04T12:42:02.425Z,63.90
2023-04-04T12:44:35.812Z,61.50
2023-04-04T12:47:06.641Z,62.90
2023-04-04T12:49:48.521Z,62.10
2023-04-04T12:52:20.514Z,61.30
2023-04-04T12:54:50.955Z,61.10
2023-04-04T12:57:24.548Z,60.30
2023-04-04T12:59:52.357Z,59.40
2023-04-04T13:02:20.021Z,59.50
2023-04-04T13:04:47.860Z,62.70
2023-04-04T13:07:27.353Z,67.80
2023-04-04T13:10:00.623Z,69.40
2023-04-04T13:12:27.312Z,70.00
2023-04-04T13:15:01.037Z,71.30
2023-04-04T13:17:45.981Z,71.60
2023-04-04T13:20:13.508Z,71.50
2023-04-04T13:22:40.583Z,71.90
2023-04-04T13:25:08.168Z,71.80
2023-04-04T13:27:35.572Z,73.60
2023-04-04T13:30:03.460Z,71.10
2023-04-04T13:32:31.103Z,75.20
2023-04-04T13:34:57.937Z,72.90
2023-04-04T13:37:25.269Z,73.00
2023-04-04T13:39:51.948Z,73.70
2023-04-04T13:42:18.602Z,74.80
2023-04-04T13:44:45.300Z,75.50
2023-04-04T13:47:11.964Z,75.70
2023-04-04T13:49:38.614Z,75.50
2023-04-04T13:52:05.328Z,77.90
2023-04-04T13:54:32.029Z,76.10
2023-04-04T13:56:58.775Z,75.60
2023-04-04T13:59:25.524Z,74.40
2023-04-04T14:01:52.296Z,73.50
2023-04-04T14:07:06.060Z,73.80
2023-04-04T14:09:32.850Z,74.30
2023-04-04T14:11:59.534Z,75.90
2023-04-04T14:14:26.175Z,76.70
2023-04-04T14:16:52.997Z,76.20
2023-04-04T14:19:20.042Z,73.80
2023-04-04T14:21:46.932Z,75.00
2023-04-04T14:24:13.598Z,73.90
2023-04-04T14:26:40.346Z,76.30
2023-04-04T14:29:07.022Z,75.90
2023-04-04T14:31:34.836Z,77.30
2023-04-04T14:34:02.641Z,76.20
2023-04-04T14:36:29.378Z,77.40
2023-04-04T14:38:56.081Z,75.90
2023-04-04T14:41:22.985Z,75.90
2023-04-04T14:43:49.755Z,74.90
2023-04-04T14:46:18.432Z,75.70
2023-04-04T14:48:45.278Z,76.50
2023-04-04T14:51:12.009Z,76.80
2023-04-04T14:53:38.680Z,76.90
2023-04-04T14:56:05.538Z,78.60
2023-04-04T14:58:32.320Z,74.90
2023-04-04T15:01:00.270Z,76.40
2023-04-04T15:03:27.118Z,77.50
2023-04-04T15:05:53.868Z,77.00
2023-04-04T15:08:20.641Z,77.90
2023-04-04T15:10:47.347Z,77.00
2023-04-04T15:13:14.063Z,74.50
2023-04-04T15:15:41.298Z,75.10
2023-04-04T15:18:08.284Z,76.00
2023-04-04T15:20:39.731Z,75.20
2023-04-04T15:23:07.008Z,75.80
2023-04-04T15:25:33.860Z,73.30
2023-04-04T15:28:01.141Z,74.20
2023-04-04T15:30:28.134Z,74.50
2023-04-04T15:32:56.338Z,74.80
2023-04-04T15:35:23.329Z,74.80
2023-04-04T15:37:50.112Z,74.40
2023-04-04T15:40:17.514Z,74.00
2023-04-04T15:42:44.629Z,74.60
2023-04-04T15:45:12.974Z,74.80
2023-04-04T15:47:39.843Z,74.40
2023-04-04T15:50:11.567Z,74.90
2023-04-04T15:52:38.511Z,73.20
2023-04-04T15:55:07.753Z,72.10
2023-04-04T15:57:34.545Z,72.20
2023-04-04T16:00:01.208Z,70.90
2023-04-04T16:02:34.473Z,71.50
2023-04-04T16:05:01.523Z,72.30
2023-04-04T16:07:28.196Z,73.50
2023-04-04T16:09:55.205Z,73.80
2023-04-04T16:12:22.387Z,72.00
2023-04-04T16:14:49.069Z,71.70
2023-04-04T16:17:16.078Z,73.30
2023-04-04T16:19:42.729Z,73.70
2023-04-04T16:22:09.650Z,72.80
2023-04-04T16:24:36.477Z,72.90
2023-04-04T16:27:03.254Z,71.90
2023-04-04T16:29:30.972Z,71.70
2023-04-04T16:31:57.871Z,72.20
2023-04-04T16:34:24.601Z,73.10
2023-04-04T16:36:51.375Z,74.30
2023-04-04T16:39:18.084Z,75.40
2023-04-04T16:41:44.865Z,74.90
2023-04-04T16:44:12.230Z,73.90
2023-04-04T16:46:39.044Z,72.90
2023-04-04T16:49:05.771Z,73.50
2023-04-04T16:51:32.494Z,73.50
2023-04-04T16:53:59.216Z,74.30
2023-04-04T16:56:26.018Z,74.00
2023-04-04T16:58:52.729Z,73.70
2023-04-04T17:01:22.548Z,74.20
2023-04-04T17:03:49.542Z,75.20
2023-04-04T17:06:20.009Z,82.20
2023-04-04T17:08:46.872Z,75.80
2023-04-04T17:11:15.083Z,76.00
2023-04-04T17:13:42.328Z,75.70
2023-04-04T17:16:09.553Z,75.20
2023-04-04T17:18:36.660Z,77.00
2023-04-04T17:21:03.458Z,76.00
2023-04-04T17:23:30.573Z,76.30
2023-04-04T17:26:04.801Z,76.10
2023-04-04T17:28:31.508Z,76.40
2023-04-04T17:30:59.009Z,76.60
2023-04-04T17:33:27.298Z,76.00
2023-04-04T17:35:55.616Z,75.70
2023-04-04T17:38:22.430Z,75.30
2023-04-04T17:40:49.665Z,75.80
2023-04-04T17:43:16.535Z,75.60
2023-04-04T17:45:46.277Z,76.10
2023-04-04T17:48:13.363Z,76.90
2023-04-04T17:50:40.444Z,77.60
2023-04-04T17:53:07.355Z,77.20
2023-04-04T17:55:34.301Z,77.20
2023-04-04T17:58:05.320Z,77.60
2023-04-04T18:00:32.914Z,78.30
2023-04-04T18:02:59.681Z,79.10
2023-04-04T18:05:27.097Z,79.30
2023-04-04T18:07:53.909Z,79.80
2023-04-04T18:10:21.012Z,80.00
2023-04-04T18:12:47.819Z,80.00
2023-04-04T18:15:14.555Z,80.80
2023-04-04T18:17:42.143Z,80.90
2023-04-04T18:20:09.482Z,80.90
2023-04-04T18:22:40.051Z,81.50
2023-04-04T18:25:07.337Z,82.40
2023-04-04T18:27:44.145Z,82.50
2023-04-04T18:30:11.371Z,82.70
2023-04-04T18:32:38.163Z,83.20
2023-04-04T18:35:05.309Z,83.40
2023-04-04T18:37:32.248Z,83.20
2023-04-04T18:39:58.965Z,83.70
2023-04-04T18:42:26.052Z,82.90
2023-04-04T18:44:57.056Z,83.80
2023-04-04T18:47:24.114Z,84.10
2023-04-04T18:49:50.883Z,84.40
2023-04-04T18:52:21.321Z,85.50
2023-04-04T18:54:48.086Z,85.50
2023-04-04T18:57:15.309Z,85.50
2023-04-04T18:59:49.334Z,86.10
2023-04-04T19:02:18.140Z,87.30
2023-04-04T19:04:44.873Z,86.60
2023-04-04T19:07:11.793Z,86.80
2023-04-04T19:09:38.805Z,87.60
2023-04-04T19:12:05.867Z,87.70
2023-04-04T19:14:32.585Z,88.20
2023-04-04T19:16:59.960Z,88.60
2023-04-04T19:19:28.621Z,88.90
2023-04-04T19:21:56.078Z,88.80
2023-04-04T19:24:51.870Z,89.00
2023-04-04T19:31:57.808Z,90.10
2023-04-04T19:34:24.881Z,89.80
2023-04-04T19:36:55.736Z,91.00
2023-04-04T19:43:20.296Z,90.50
2023-04-04T19:45:48.984Z,90.20
2023-04-04T19:48:45.216Z,90.20
2023-04-04T19:51:18.299Z,90.20
2023-04-04T19:53:46.525Z,92.30
2023-04-04T19:56:14.572Z,95.00
2023-04-04T19:58:42.194Z,96.70
2023-04-04T20:01:09.938Z,97.80
2023-04-04T20:03:40.854Z,98.70
2023-04-04T20:06:11.601Z,99.10
2023-04-04T20:08:47.752Z,99.20
2023-04-04T20:11:15.912Z,99.90
2023-04-04T20:13:42.963Z,99.90
2023-04-04T20:16:17.103Z,99.90
2023-04-04T20:18:45.288Z,99.90
2023-04-04T20:21:22.575Z,99.90
2023-04-04T20:24:03.245Z,99.90
2023-04-04T20:26:36.330Z,99.90
2023-04-04T20:29:11.739Z,99.90
2023-04-04T20:31:49.852Z,99.90
2023-04-04T20:34:39.233Z,99.90
2023-04-04T20:37:10.804Z,99.90
2023-04-04T20:39:41.025Z,99.90
2023-04-04T20:42:16.633Z,99.90
2023-04-04T20:44:43.682Z,99.90
2023-04-04T20:47:49.737Z,99.90
2023-04-04T20:50:20.458Z,99.90
2023-04-04T20:52:56.195Z,99.90
2023-04-04T20:55:25.320Z,99.90
2023-04-04T20:57:54.290Z,99.90
2023-04-04T21:00:33.792Z,99.90
2023-04-04T21:03:02.642Z,99.90
2023-04-04T21:05:34.723Z,99.90
2023-04-04T21:08:01.867Z,99.90
2023-04-04T21:10:28.768Z,99.90
2023-04-04T21:12:59.304Z,99.90
2023-04-04T21:15:31.162Z,99.90
2023-04-04T21:18:00.149Z,99.90
2023-04-04T21:20:47.887Z,99.90
2023-04-04T21:23:26.889Z,99.90
2023-04-04T21:25:57.160Z,99.90
2023-04-04T21:28:25.151Z,99.90
2023-04-04T21:30:52.167Z,99.90
2023-04-04T21:33:19.221Z,99.90
2023-04-04T21:35:47.994Z,99.90
2023-04-04T21:38:32.069Z,99.90
2023-04-04T21:41:00.212Z,99.90
2023-04-04T21:43:27.998Z,99.90
2023-04-04T21:45:56.133Z,99.90
2023-04-04T21:48:25.661Z,99.90
2023-04-04T21:50:53.423Z,99.90
2023-04-04T21:53:22.627Z,99.90
2023-04-04T21:55:49.696Z,99.90
2023-04-04T21:58:16.912Z,99.90
2023-04-04T22:00:44.105Z,99.90
2023-04-04T22:03:10.797Z,99.90
2023-04-04T22:05:39.380Z,99.90
2023-04-04T22:08:07.289Z,99.90
2023-04-04T22:10:34.267Z,99.90
2023-04-04T22:13:01.901Z,99.90
2023-04-04T22:15:29.470Z,99.90
2023-04-04T22:18:03.726Z,99.90
2023-04-04T22:20:34.175Z,99.90
2023-04-04T22:23:05.148Z,99.90
2023-04-04T22:25:33.761Z,99.90
2023-04-04T22:28:03.241Z,99.90
2023-04-04T22:30:31.755Z,99.90
2023-04-04T22:33:03.616Z,99.90
2023-04-04T22:35:31.950Z,99.90
2023-04-04T22:38:01.180Z,99.90
2023-04-04T22:40:28.546Z,99.90
2023-04-04T22:42:56.168Z,99.90
2023-04-04T22:45:23.681Z,99.90
2023-04-04T22:47:50.727Z,99.90
2023-04-04T22:50:18.421Z,99.90
2023-04-04T22:52:49.307Z,99.90
2023-04-04T22:55:18.532Z,99.90
2023-04-04T22:57:45.583Z,99.90
2023-04-04T23:00:14.476Z,99.90
2023-04-04T23:02:42.368Z,99.90
2023-04-04T23:05:09.603Z,99.90
2023-04-04T23:07:36.713Z,99.90
2023-04-04T23:10:04.838Z,99.90
2023-04-04T23:12:31.891Z,99.90
2023-04-04T23:15:01.361Z,99.90
2023-04-04T23:17:29.015Z,99.90
2023-04-04T23:19:56.316Z,99.90
2023-04-04T23:22:24.199Z,99.90
2023-04-04T23:24:51.421Z,99.90
2023-04-04T23:27:19.247Z,99.90
2023-04-04T23:29:47.451Z,99.90
2023-04-04T23:32:14.130Z,99.90
2023-04-04T23:34:40.807Z,99.90
2023-04-04T23:37:08.527Z,99.90
2023-04-04T23:39:35.769Z,99.90
2023-04-04T23:42:03.384Z,99.90
2023-04-04T23:44:30.421Z,99.90
2023-04-04T23:46:57.585Z,99.90
2023-04-04T23:49:24.632Z,99.90
2023-04-04T23:51:51.745Z,99.90
2023-04-04T23:54:18.952Z,99.90
2023-04-04T23:56:45.632Z,99.90
2023-04-04T23:59:12.920Z,99.90
